Des Moines, Iowa
Current Conditions -  °F | °C
As of 4:54 AM on Wednesday 22 Oct 2014 (Local Time) from KDSM Reporting Station
Clear Clear  
Wind Chill:   Ceiling: Unl
Heat Index:   Visibility: 10mi
Dew Point:   Wind: 8mph
Humidity: 76%   Direction: 130°SE
Pressure: 30.21"   Gusts: NA
Location:  41.59°N, 93.61°W
Report Text: KDSM 220954Z 13007KT 10SM CLR 07/03 A3021 RMK AO2 SLP230 T00720033
Loading
Personal Weather Stations






























Interactive Weather Map New forecast layout! Learn more

10-Day Weather Forecast

Advertisements
Track Severe Weather on mobile